Airport ID:K63S
Update Time (UTC):15/08/2020 17:40
Wind Speed (Knots):0
Wind Direction (Magnetic):240
Temperature (°C):23
Dew Point (°C):6
Humidity (%):35
Altimeter (inHg):30.13
Density Altitude (Feet):3100
Visibility:10+
Clouds (Hundreds of feet):\\\\
Present Weather:
METAR:METAR K63S 151735Z AUTO 00000KT 10SM 23/06 A3013 RMK A01

The data displayed is for advisory purposes only and is not to be used for flight planning or operations.